This is the latest recevied weather packets stored in our database for station/object KB1FFS. If no packets are shown the sender has not sent any weather packets the latest 10 day(s).
| Time | Temp. | Humidity | Pressure | Rain* | Wind** | Luminosity | Snow |
|---|---|---|---|---|---|---|---|
| 1777577761 | 17.22° C | 75% | 1015.3 hPa | 0 mm | - | 92 W/m² | - |
| 1777577458 | 17.22° C | 75% | 1015.3 hPa | 0 mm | - | 78 W/m² | - |
| 1777577155 | 17.22° C | 77% | 1014.8 hPa | 0 mm | - | 84 W/m² | - |
| 1777576851 | 17.22° C | 77% | 1014.8 hPa | 0 mm | - | 72 W/m² | - |
| 1777576550 | 17.22° C | 76% | 1014.7 hPa | 0 mm | - | 69 W/m² | - |
| 1777576247 | 17.22° C | 77% | 1015 hPa | 0 mm | - | 74 W/m² | - |
| 1777575943 | 17.22° C | 77% | 1015 hPa | 0 mm | - | 86 W/m² | - |
| 1777575639 | 17.22° C | 78% | 1015.4 hPa | 0 mm | - | 67 W/m² | - |
| 1777575336 | 17.22° C | 78% | 1015 hPa | 0 mm | - | 68 W/m² | - |
| 1777575032 | 17.22° C | 80% | 1015.3 hPa | 0 mm | - | 58 W/m² | - |
| 1777574728 | 17.22° C | 82% | 1014.9 hPa | 0 mm | - | 52 W/m² | - |
| 1777574426 | 17.22° C | 82% | 1014.8 hPa | 0 mm | - | 65 W/m² | - |
| 1777574121 | 17.22° C | 82% | 1014.8 hPa | 0 mm | - | 56 W/m² | - |
| 1777573816 | 17.22° C | 84% | 1014.4 hPa | 0 mm | - | 70 W/m² | - |
| 1777573512 | 16.67° C | 83% | 1014.9 hPa | 0 mm | - | 58 W/m² | - |
| 1777573208 | 17.22° C | 83% | 1014.3 hPa | 0 mm | - | 65 W/m² | - |
| 1777572905 | 17.22° C | 84% | 1014.6 hPa | 0 mm | - | 68 W/m² | - |
| 1777572600 | 17.22° C | 85% | 1015 hPa | 0 mm | - | 56 W/m² | - |
| 1777572295 | 17.22° C | 86% | 1014.5 hPa | 0 mm | - | 77 W/m² | - |
| 1777571991 | 17.22° C | 86% | 1015.1 hPa | 0 mm | - | 64 W/m² | - |
| 1777571691 | 17.22° C | 86% | 1015 hPa | 0 mm | - | 87 W/m² | - |
| 1777571389 | 17.22° C | 85% | 1015.1 hPa | 0 mm | - | 100 W/m² | - |
| 1777571085 | 17.22° C | 86% | 1015.5 hPa | 0 mm | - | 85 W/m² | - |
| 1777570781 | 17.22° C | 86% | 1015.8 hPa | 0 mm | - | 60 W/m² | - |
| 1777570477 | 17.22° C | 86% | 1016.3 hPa | 0 mm | - | 38 W/m² | - |
* Rain latest hour (hover to see other rain measurements)
** Current wind speed in m/s (hover to see current wind gust speed)